Egg Harbor Township, NJ (08234)

5:02 PM EDT on August 30, 2016 (GMT -0400)
Birch Ave | | Change Station

Elev 75 ft 39.41 °N, 74.63 °W | Updated 8 seconds ago

Overcast
Overcast
81.7 °F
Feels Like 86 °F
N
0.0
Wind Variable Wind from SW
Gusts 0.0 mph

Today
High -- | Low -- °F
--% Chance of Precip.
Yesterday
High -- | Low -- °F
Precip. -- in
Pressure 30.06 in
Visibility 10.0 miles
Clouds Scattered Clouds 2000 ft
Scattered Clouds 3600 ft
Overcast 7000 ft
Heat Index 86 °F
Dew Point 71 °F
Humidity 70%
Rainfall 0.00 in
Snow Depth Not available.
6:25 AM 7:31 PM
Waning Crescent, 2% visible
METAR KACY 302054Z 13007KT 10SM SCT020 SCT036 OVC070 27/22 A3006 RMK AO2 RAB01E17 SLP179 P0000 60000 T02670217 56011
Pressure 30.06 in
Visibility 10.0 miles
Clouds Scattered Clouds 2000 ft
Scattered Clouds 3600 ft
Overcast 7000 ft
Heat Index 86 °F
Dew Point 71 °F
Humidity 70%
Rainfall 0.00 in
Snow Depth Not available.
6:25 AM 7:31 PM
Waning Crescent, 2% visible
METAR KACY 302054Z 13007KT 10SM SCT020 SCT036 OVC070 27/22 A3006 RMK AO2 RAB01E17 SLP179 P0000 60000 T02670217 56011

10-Day Weather Forecast

Almanac

Astronomy

Aug. 30, 2016 Rise Set
Actual Time
Civil Twilight
Nautical Twilight
Astronomical Twilight
Moon
Length of Visible Light
Length of Day
Tomorrow will be .
, % of the Moon is Illuminated

Today's Extremes

State Highs State Lows

Community

WunderPhotos

Upload Photos

1,935,894 photos uploaded!

WunderBlog® & News

Nearby

Air Quality

  Air Quality AQ Index Pollutant
Not available.

Snow Depth

Station Depth Elevation

Earthquake Activity

City Distance Mag. Time & Date
Minimum magnitude displayed is 2.5.

Coastal Water Temperatures

Place Temperature

Stations

Nearby Weather Stations

Station Location Temp. Windchill Dew Point Humidity Wind Precip. Elev Updated Type
                   

Watches & Warnings

There are currently no watches in effect.